Time;durP1;ratioP1;P1;durP2;ratioP2;P2;SDS_P1;SDS_P2;PMS_P1;PMS_P2;Temp;Humidity;BMP_temperature;BMP_pressure;BME280_temperature;BME280_humidity;BME280_pressure;Samples;Min_cycle;Max_cycle;Signal;HPM_P1;HPM_P2
2023/09/14 00:02:06;;;;;;;1.20;1.20;;;;;;;19.23;100.00;95769.13;4397809;32;20207;-62
2023/09/14 00:04:32;;;;;;;1.83;1.70;;;;;;;19.19;99.92;95776.31;4393508;32;20211;-63
2023/09/14 00:06:57;;;;;;;5.80;1.50;;;;;;;19.08;99.61;95772.50;4393816;32;20192;-62
2023/09/14 00:09:22;;;;;;;1.20;1.20;;;;;;;19.01;100.00;95774.97;4390084;32;20220;-62
2023/09/14 00:11:48;;;;;;;1.37;1.37;;;;;;;19.04;100.00;95773.50;4398315;32;20203;-62
2023/09/14 00:14:13;;;;;;;0.73;0.73;;;;;;;19.07;100.00;95772.84;4394014;32;20200;-62
2023/09/14 00:16:38;;;;;;;1.20;1.20;;;;;;;19.02;100.00;95773.84;4393478;32;20235;-63
2023/09/14 00:19:03;;;;;;;1.17;1.07;;;;;;;19.05;100.00;95769.69;4388923;32;20201;-63
2023/09/14 00:21:30;;;;;;;1.20;1.20;;;;;;;19.06;100.00;95772.06;4394647;32;20239;-63
2023/09/14 00:23:56;;;;;;;1.03;1.03;;;;;;;19.09;100.00;95768.69;4382404;32;20192;-62
2023/09/14 00:26:21;;;;;;;1.63;1.57;;;;;;;19.13;99.75;95772.25;4391952;32;20252;-62
2023/09/14 00:28:46;;;;;;;1.33;1.23;;;;;;;19.13;100.00;95772.25;4393179;32;20234;-63
2023/09/14 00:31:12;;;;;;;1.30;1.23;;;;;;;19.12;100.00;95765.31;4391275;32;20204;-62
2023/09/14 00:33:37;;;;;;;1.13;1.13;;;;;;;19.09;99.94;95765.22;4391607;32;20191;-62
2023/09/14 00:36:02;;;;;;;1.47;1.37;;;;;;;19.11;99.88;95769.16;4393711;32;20265;-62
2023/09/14 00:38:28;;;;;;;1.30;1.30;;;;;;;18.92;100.00;95763.53;4391011;32;20234;-63
2023/09/14 00:40:53;;;;;;;2.00;1.60;;;;;;;18.93;100.00;95764.31;4385169;32;20196;-62
2023/09/14 00:43:19;;;;;;;0.67;0.67;;;;;;;19.07;100.00;95765.56;4387683;32;20313;-62
2023/09/14 00:45:45;;;;;;;0.73;0.73;;;;;;;19.03;100.00;95767.34;4389671;32;20188;-62
2023/09/14 00:48:11;;;;;;;0.63;0.63;;;;;;;19.08;100.00;95769.81;4384573;32;20222;-62
2023/09/14 00:50:37;;;;;;;1.37;1.33;;;;;;;19.03;100.00;95766.56;4378384;32;20203;-63
2023/09/14 00:53:11;;;;;;;1.47;1.30;;;;;;;19.03;100.00;95767.34;4387649;32;20200;-62
2023/09/14 00:55:37;;;;;;;1.17;1.17;;;;;;;19.08;99.70;95771.72;4387864;32;20195;-63
2023/09/14 00:58:03;;;;;;;1.00;1.00;;;;;;;19.14;99.53;95768.47;4375002;32;20199;-62
2023/09/14 01:00:29;;;;;;;0.93;0.93;;;;;;;19.12;99.30;95762.63;4394477;32;20196;-63
2023/09/14 01:02:55;;;;;;;0.97;0.97;;;;;;;19.15;99.39;95759.25;4390275;32;20192;-62
2023/09/14 01:05:21;;;;;;;0.77;0.77;;;;;;;19.01;99.66;95760.72;4394312;32;20220;-62
2023/09/14 01:07:47;;;;;;;1.43;1.33;;;;;;;19.06;100.00;95758.63;4388974;32;20209;-62
2023/09/14 01:10:15;;;;;;;1.70;1.23;;;;;;;19.08;99.99;95751.00;4389776;32;20184;-63
2023/09/14 01:12:41;;;;;;;0.80;0.80;;;;;;;19.08;99.77;95751.00;4389545;32;20229;-62
2023/09/14 01:15:09;;;;;;;1.17;1.07;;;;;;;19.13;99.81;95752.66;4393245;32;20193;-62
2023/09/14 01:17:44;;;;;;;2.23;1.37;;;;;;;19.14;99.39;95744.25;4372624;32;20189;-63
2023/09/14 01:20:36;;;;;;;0.93;0.93;;;;;;;19.01;99.36;95760.72;4390425;32;20211;-62
2023/09/14 01:23:47;;;;;;;0.90;0.90;;;;;;;19.09;99.55;95760.63;4374913;32;20180;-62
2023/09/14 01:26:14;;;;;;;1.33;1.33;;;;;;;18.91;99.43;95759.28;4357122;32;20193;-63
2023/09/14 01:28:40;;;;;;;1.17;1.17;;;;;;;18.97;100.00;95757.13;4389825;32;20236;-63
2023/09/14 01:31:05;;;;;;;0.97;0.97;;;;;;;18.93;100.00;95758.94;4395259;32;20274;-62
2023/09/14 01:33:31;;;;;;;1.53;1.53;;;;;;;19.00;100.00;95767.22;4380860;32;20233;-62
2023/09/14 01:36:15;;;;;;;1.40;1.33;;;;;;;19.06;100.00;95764.00;4392482;32;20200;-63
2023/09/14 01:38:41;;;;;;;0.97;0.97;;;;;;;19.04;99.87;95762.75;4384402;32;20228;-62
2023/09/14 01:41:07;;;;;;;1.07;1.07;;;;;;;19.08;99.88;95763.66;4378432;32;20264;-62
2023/09/14 01:43:33;;;;;;;1.27;1.27;;;;;;;18.97;100.00;95759.84;4388530;32;20211;-62
2023/09/14 01:46:02;;;;;;;1.50;1.30;;;;;;;19.01;100.00;95766.91;4394293;32;20219;-63
2023/09/14 01:48:27;;;;;;;1.00;1.00;;;;;;;19.05;100.00;95759.72;4393695;32;20199;-62
2023/09/14 01:50:52;;;;;;;1.63;1.53;;;;;;;19.00;100.00;95756.47;4380567;32;20188;-62
2023/09/14 01:53:18;;;;;;;1.93;1.83;;;;;;;18.76;100.00;95746.47;4399872;32;20200;-62
2023/09/14 01:55:43;;;;;;;2.63;1.87;;;;;;;18.95;100.00;95752.09;4393563;32;20207;-62
2023/09/14 01:58:10;;;;;;;1.33;1.33;;;;;;;18.87;100.00;95753.00;4397999;32;20510;-62
2023/09/14 02:00:35;;;;;;;1.83;1.73;;;;;;;19.01;100.00;95753.44;4391684;32;20227;-63
2023/09/14 02:03:00;;;;;;;1.27;1.27;;;;;;;18.89;99.86;95756.16;4392408;32;20249;-63
2023/09/14 02:05:26;;;;;;;1.13;1.13;;;;;;;18.88;100.00;95749.19;4394609;32;20208;-62
2023/09/14 02:07:51;;;;;;;1.67;1.57;;;;;;;18.92;100.00;95750.06;4378629;32;20201;-62
2023/09/14 02:10:19;;;;;;;1.60;1.53;;;;;;;19.00;100.00;95751.88;4395227;32;20196;-62
2023/09/14 02:12:45;;;;;;;1.07;1.07;;;;;;;18.98;100.00;95753.34;4378613;32;20211;-62
2023/09/14 02:15:10;;;;;;;1.37;1.27;;;;;;;19.04;99.71;95758.16;4378759;32;20236;-62
2023/09/14 02:17:36;;;;;;;2.60;2.50;;;;;;;19.02;100.00;95759.62;4382590;32;20188;-62
2023/09/14 02:20:02;;;;;;;1.40;1.40;;;;;;;18.98;99.93;95764.88;4379189;32;20196;-63
2023/09/14 02:22:28;;;;;;;2.40;2.13;;;;;;;18.88;100.00;95765.34;4397689;32;20202;-62
2023/09/14 02:24:53;;;;;;;2.30;2.10;;;;;;;18.84;100.00;95764.44;4381685;32;20196;-63
2023/09/14 02:27:18;;;;;;;1.70;1.60;;;;;;;18.93;100.00;95759.72;4396118;32;20255;-62
2023/09/14 02:29:44;;;;;;;4.93;1.73;;;;;;;18.92;100.00;95760.81;4396071;32;20208;-62
2023/09/14 02:32:09;;;;;;;1.90;1.80;;;;;;;19.03;100.00;95761.97;4386539;32;20254;-62
2023/09/14 02:34:35;;;;;;;2.43;2.33;;;;;;;18.94;100.00;95763.97;4384003;32;20235;-62
2023/09/14 02:37:02;;;;;;;4.00;1.43;;;;;;;18.91;100.00;95771.94;4392614;32;20245;-62
2023/09/14 02:39:27;;;;;;;1.30;1.30;;;;;;;19.01;100.00;95774.97;4399815;32;20180;-62
2023/09/14 02:41:53;;;;;;;1.80;1.70;;;;;;;19.03;100.00;95767.34;4384047;32;20192;-62
2023/09/14 02:44:18;;;;;;;6.23;2.20;;;;;;;18.95;100.00;95776.28;4393583;32;20218;-62
2023/09/14 02:46:43;;;;;;;1.83;1.73;;;;;;;19.09;100.00;95776.78;4385177;32;20196;-62
2023/09/14 02:49:09;;;;;;;2.20;2.07;;;;;;;18.98;100.00;95782.91;4392516;32;20179;-62
2023/09/14 02:51:35;;;;;;;1.67;1.63;;;;;;;18.96;100.00;95782.47;4381955;32;20257;-62
2023/09/14 02:54:00;;;;;;;1.47;1.37;;;;;;;18.96;100.00;95787.84;4392193;32;20254;-63
2023/09/14 02:56:25;;;;;;;2.37;2.17;;;;;;;18.91;100.00;95780.00;4386655;32;20212;-62
2023/09/14 02:58:51;;;;;;;3.20;2.43;;;;;;;18.80;100.00;95779.66;4391613;32;20207;-63
2023/09/14 03:01:17;;;;;;;3.27;3.17;;;;;;;18.82;100.00;95780.09;4397110;32;20196;-63
2023/09/14 03:03:42;;;;;;;2.47;2.37;;;;;;;18.81;100.00;95781.22;4387333;32;20202;-62
2023/09/14 03:06:08;;;;;;;3.00;2.80;;;;;;;18.79;100.00;95780.78;4393346;32;20199;-62
2023/09/14 03:08:33;;;;;;;3.90;2.37;;;;;;;18.71;100.00;95776.25;4396142;32;20255;-62
2023/09/14 03:10:59;;;;;;;3.23;3.03;;;;;;;18.70;100.00;95777.41;4398513;32;20265;-62
2023/09/14 03:13:25;;;;;;;2.00;1.90;;;;;;;18.65;100.00;95783.00;4395383;32;20185;-62
2023/09/14 03:15:59;;;;;;;2.63;2.53;;;;;;;18.66;100.00;95789.94;4378383;32;20188;-62
2023/09/14 03:18:26;;;;;;;1.67;1.67;;;;;;;18.61;100.00;95782.09;4399903;32;20191;-62
2023/09/14 03:20:56;;;;;;;2.80;2.60;;;;;;;18.68;100.00;95783.12;4394905;32;20222;-62
2023/09/14 03:23:22;;;;;;;2.63;2.33;;;;;;;18.66;100.00;95789.94;4392218;32;20188;-62
2023/09/14 03:25:48;;;;;;;2.37;2.27;;;;;;;18.78;100.00;95793.41;4397089;32;20203;-62
2023/09/14 03:28:15;;;;;;;2.80;1.87;;;;;;;18.79;100.00;95796.91;4392134;32;20256;-62
2023/09/14 03:30:40;;;;;;;2.60;2.40;;;;;;;18.85;100.00;95795.56;4395204;32;20269;-62
2023/09/14 03:33:06;;;;;;;9.50;3.63;;;;;;;18.83;100.00;95795.91;4396030;32;20207;-63
2023/09/14 03:35:32;;;;;;;3.93;3.33;;;;;;;18.96;100.00;95793.22;4391689;32;20351;-62
2023/09/14 03:37:57;;;;;;;2.80;2.60;;;;;;;18.94;100.00;95793.56;4382885;32;20235;-62
2023/09/14 03:40:22;;;;;;;2.40;2.30;;;;;;;19.00;100.00;95789.53;4378134;32;20196;-62
2023/09/14 03:42:49;;;;;;;4.47;2.77;;;;;;;19.00;100.00;95789.53;4383315;32;20236;-62
2023/09/14 03:45:14;;;;;;;2.17;2.07;;;;;;;19.00;100.00;95789.53;4395164;32;20215;-62
2023/09/14 03:47:40;;;;;;;3.97;3.67;;;;;;;18.99;100.00;95789.88;4398412;32;20235;-62
2023/09/14 03:50:06;;;;;;;3.20;2.67;;;;;;;18.96;100.00;95791.31;4392808;32;20216;-62
2023/09/14 03:52:31;;;;;;;2.67;2.57;;;;;;;19.00;100.00;95794.13;4390783;32;20197;-62
2023/09/14 03:54:57;;;;;;;2.83;2.70;;;;;;;18.99;100.00;95789.88;4399177;32;20223;-63
2023/09/14 03:57:24;;;;;;;3.27;3.07;;;;;;;18.99;100.00;95787.19;4378382;32;20199;-62
2023/09/14 03:59:51;;;;;;;3.03;2.90;;;;;;;19.03;100.00;95794.25;4391225;32;20270;-62
2023/09/14 04:02:17;;;;;;;2.67;2.57;;;;;;;19.02;100.00;95784.59;4379836;32;20211;-62
2023/09/14 04:04:43;;;;;;;3.13;2.93;;;;;;;19.02;100.00;95792.66;4396701;32;20193;-62
2023/09/14 04:07:09;;;;;;;1.50;1.50;;;;;;;19.07;100.00;95797.84;4400432;32;20193;-63
2023/09/14 04:09:34;;;;;;;2.73;2.53;;;;;;;19.08;100.00;95799.41;4391698;32;20188;-63
2023/09/14 04:12:00;;;;;;;4.90;4.53;;;;;;;19.11;100.00;95801.44;4387552;32;20247;-64
2023/09/14 04:14:25;;;;;;;2.63;2.53;;;;;;;19.08;100.00;95801.31;4390840;32;20239;-63
2023/09/14 04:16:59;;;;;;;3.20;3.10;;;;;;;19.06;100.00;95801.66;4379377;32;20184;-63
2023/09/14 04:19:24;;;;;;;3.17;2.97;;;;;;;19.05;100.00;95796.59;4378368;32;20200;-62
2023/09/14 04:21:50;;;;;;;3.23;3.13;;;;;;;19.11;100.00;95806.81;4391150;32;20258;-62
2023/09/14 04:24:18;;;;;;;3.60;3.30;;;;;;;19.01;100.00;95809.16;4391690;32;20196;-62
2023/09/14 04:26:44;;;;;;;2.77;2.60;;;;;;;19.01;100.00;95814.53;4374726;32;20204;-62
2023/09/14 04:29:10;;;;;;;2.60;2.40;;;;;;;19.12;100.00;95818.34;4393945;32;20189;-62
2023/09/14 04:31:36;;;;;;;3.93;3.57;;;;;;;19.00;99.79;95812.94;4391493;32;20207;-63
2023/09/14 04:34:01;;;;;;;4.83;4.43;;;;;;;18.84;100.00;95818.19;4391129;32;20184;-62
2023/09/14 04:36:27;;;;;;;4.00;3.77;;;;;;;18.96;100.00;95815.50;4378817;32;20192;-63
2023/09/14 04:38:52;;;;;;;3.67;3.37;;;;;;;18.82;99.59;95821.22;4387927;32;20184;-62
2023/09/14 04:41:17;;;;;;;3.83;3.60;;;;;;;18.86;100.00;95822.13;4390850;32;20192;-62
2023/09/14 04:43:52;;;;;;;3.17;2.97;;;;;;;18.92;100.00;95820.00;4376876;32;20193;-62
2023/09/14 04:46:20;;;;;;;3.27;3.07;;;;;;;18.96;100.00;95820.91;4352623;32;20228;-62
2023/09/14 04:48:48;;;;;;;3.70;3.40;;;;;;;19.00;100.00;95821.00;4351535;32;20211;-62
2023/09/14 04:51:13;;;;;;;4.80;4.40;;;;;;;19.09;99.95;95819.81;4371648;32;20193;-62
2023/09/14 04:53:38;;;;;;;3.37;3.17;;;;;;;18.98;99.56;95821.34;4390161;32;20207;-62
2023/09/14 04:56:04;;;;;;;3.20;3.10;;;;;;;19.12;99.15;95823.75;4390651;32;20184;-62
2023/09/14 04:58:29;;;;;;;22.07;3.70;;;;;;;19.04;98.85;95828.09;4394678;32;20291;-63
2023/09/14 05:00:54;;;;;;;4.87;3.43;;;;;;;19.15;99.38;95831.91;4376375;32;20192;-62
2023/09/14 05:03:20;;;;;;;4.37;3.50;;;;;;;19.02;99.25;95830.31;4376438;32;20324;-62
2023/09/14 05:05:53;;;;;;;8.77;3.67;;;;;;;18.95;99.31;95829.28;4376472;32;20192;-63
2023/09/14 05:08:19;;;;;;;3.07;2.87;;;;;;;18.97;99.43;95833.22;4388792;32;20200;-62
2023/09/14 05:10:44;;;;;;;2.97;2.77;;;;;;;19.02;99.26;95829.53;4390705;32;20193;-62
2023/09/14 05:13:10;;;;;;;4.37;4.07;;;;;;;18.85;98.69;95830.53;4381598;32;20236;-62
2023/09/14 05:15:36;;;;;;;16.77;3.77;;;;;;;18.85;97.66;95825.16;4389482;32;20286;-62
2023/09/14 05:18:01;;;;;;;3.73;3.43;;;;;;;18.80;98.17;95820.75;4376133;32;20201;-62
2023/09/14 05:20:27;;;;;;;3.97;3.67;;;;;;;18.54;98.88;95829.06;4393116;32;20208;-62
2023/09/14 05:22:52;;;;;;;3.77;3.47;;;;;;;18.66;99.83;95831.03;4386070;32;20189;-63
2023/09/14 05:25:18;;;;;;;4.53;4.23;;;;;;;18.62;99.28;95835.50;4391527;32;20241;-62
2023/09/14 05:27:43;;;;;;;5.07;4.17;;;;;;;18.67;98.53;95829.13;4390700;32;20195;-62
2023/09/14 05:30:09;;;;;;;3.03;2.83;;;;;;;18.80;98.16;95833.41;4389752;32;20200;-62
2023/09/14 05:32:36;;;;;;;3.87;3.57;;;;;;;18.72;98.25;95834.28;4376468;32;20200;-62
2023/09/14 05:35:02;;;;;;;4.07;3.87;;;;;;;18.66;98.96;95843.69;4389469;32;20261;-62
2023/09/14 05:37:27;;;;;;;8.13;4.67;;;;;;;18.71;98.68;95836.19;4390475;32;20192;-62
2023/09/14 05:39:53;;;;;;;3.80;3.57;;;;;;;18.78;99.65;95849.09;4376648;32;20188;-62
2023/09/14 05:42:18;;;;;;;4.13;3.73;;;;;;;18.85;99.41;95846.66;4376568;32;20200;-63
2023/09/14 05:44:44;;;;;;;3.97;3.77;;;;;;;18.77;98.84;95850.22;4378808;32;20195;-62
2023/09/14 05:47:09;;;;;;;3.83;3.63;;;;;;;18.84;98.87;95850.47;4389941;32;20196;-62
2023/09/14 05:49:34;;;;;;;3.77;3.57;;;;;;;18.93;98.92;95855.72;4391418;32;20230;-62
2023/09/14 05:52:00;;;;;;;4.40;4.13;;;;;;;18.87;98.40;95849.81;4390419;32;20276;-64
2023/09/14 05:54:25;;;;;;;3.63;3.43;;;;;;;18.94;98.61;95852.72;4394282;32;20202;-62
2023/09/14 05:56:51;;;;;;;6.00;5.53;;;;;;;18.92;99.00;95862.22;4378632;32;20204;-62
2023/09/14 05:59:16;;;;;;;21.17;4.43;;;;;;;18.98;98.81;95861.69;4393374;32;20292;-62
2023/09/14 06:01:42;;;;;;;3.80;3.60;;;;;;;18.93;99.03;95869.97;4395379;32;20215;-62
2023/09/14 06:04:08;;;;;;;4.50;4.17;;;;;;;18.98;98.72;95869.75;4390163;32;20226;-62
2023/09/14 06:06:33;;;;;;;4.00;3.63;;;;;;;18.98;98.41;95869.75;4389986;32;20207;-62
2023/09/14 06:08:59;;;;;;;4.63;3.97;;;;;;;18.84;97.20;95878.13;4391688;32;20184;-62
2023/09/14 06:11:26;;;;;;;5.90;5.50;;;;;;;18.92;98.05;95879.16;4376067;32;20255;-62
2023/09/14 06:13:52;;;;;;;5.57;5.17;;;;;;;18.71;96.47;95875.72;4394710;32;20222;-62
2023/09/14 06:16:17;;;;;;;4.90;4.60;;;;;;;18.75;97.14;95879.31;4391051;32;20181;-62
2023/09/14 06:18:43;;;;;;;5.60;5.30;;;;;;;18.75;96.63;95879.31;4395779;32;20205;-62
2023/09/14 06:21:08;;;;;;;5.60;5.17;;;;;;;18.68;96.79;95879.09;4375872;32;20234;-62
2023/09/14 06:23:34;;;;;;;4.07;3.83;;;;;;;18.70;98.21;95883.03;4391018;32;20211;-63
2023/09/14 06:25:59;;;;;;;5.50;5.10;;;;;;;18.84;98.01;95888.09;4380457;32;20235;-63
2023/09/14 06:28:25;;;;;;;3.93;3.73;;;;;;;18.85;97.03;95884.28;4389570;32;20193;-59
2023/09/14 06:30:52;;;;;;;5.73;5.27;;;;;;;18.95;97.45;95889.25;4380958;32;20239;-59
2023/09/14 06:33:21;;;;;;;4.90;4.50;;;;;;;19.15;98.33;95882.22;4364265;32;20195;-60
2023/09/14 06:35:47;;;;;;;7.77;4.43;;;;;;;19.35;96.52;95884.03;4367845;32;20249;-59
2023/09/14 06:38:13;;;;;;;4.40;4.00;;;;;;;19.52;95.22;95885.78;4365145;32;20238;-59
2023/09/14 06:40:40;;;;;;;6.20;5.77;;;;;;;19.61;94.40;95883.75;4358784;32;20192;-59
2023/09/14 06:43:08;;;;;;;2.60;2.40;;;;;;;19.62;92.90;95890.72;4374968;32;20207;-59
2023/09/14 06:45:35;;;;;;;4.87;4.57;;;;;;;19.90;95.25;95888.91;4376312;32;20192;-59
2023/09/14 06:48:01;;;;;;;2.57;2.37;;;;;;;19.93;94.49;95887.44;4395722;32;20236;-59
2023/09/14 06:50:27;;;;;;;4.93;4.27;;;;;;;20.07;95.46;95887.88;4397221;32;20212;-59
2023/09/14 06:52:52;;;;;;;3.30;3.20;;;;;;;20.14;94.41;95884.59;4325339;32;20243;-59
2023/09/14 06:55:19;;;;;;;6.33;5.83;;;;;;;20.23;93.41;95894.09;4356782;32;20196;-61
2023/09/14 06:57:44;;;;;;;4.00;3.80;;;;;;;19.59;89.60;95893.28;4378411;32;20218;-60
2023/09/14 07:00:20;;;;;;;4.97;4.73;;;;;;;19.75;92.37;95899.56;4397241;32;20227;-63
2023/09/14 07:02:52;;;;;;;4.67;4.40;;;;;;;19.63;90.68;95894.97;4371678;32;20249;-65
2023/09/14 07:05:20;;;;;;;5.73;5.33;;;;;;;19.54;89.30;95894.28;4351779;32;20224;-65
2023/09/14 07:07:47;;;;;;;6.30;5.90;;;;;;;19.43;90.08;95888.53;4354544;32;20211;-63
2023/09/14 07:10:15;;;;;;;6.20;5.70;;;;;;;19.36;90.08;95891.00;4337070;32;20184;-65
2023/09/14 07:12:40;;;;;;;7.17;6.60;;;;;;;19.18;90.74;95893.09;4354664;32;20247;-63
2023/09/14 07:15:10;;;;;;;6.83;6.43;;;;;;;19.01;91.85;95893.31;4347376;32;20185;-63
2023/09/14 07:17:35;;;;;;;6.53;6.17;;;;;;;18.98;91.87;95898.56;4362302;32;20197;-64
2023/09/14 07:20:04;;;;;;;7.93;7.37;;;;;;;18.67;92.89;95902.50;4383660;32;20188;-64
2023/09/14 07:22:30;;;;;;;6.23;5.93;;;;;;;18.65;93.50;95898.56;4381203;32;20199;-63
2023/09/14 07:24:57;;;;;;;5.57;5.27;;;;;;;18.76;93.39;95902.41;4384721;32;20204;-64
2023/09/14 07:27:22;;;;;;;7.83;7.00;;;;;;;18.93;93.59;95906.81;4353227;32;20216;-64
2023/09/14 07:29:50;;;;;;;7.00;6.60;;;;;;;18.85;94.41;95903.13;4363789;32;20196;-63
2023/09/14 07:32:18;;;;;;;6.17;5.80;;;;;;;18.84;94.40;95904.22;4340949;32;20227;-64
2023/09/14 07:34:46;;;;;;;6.37;5.97;;;;;;;18.78;94.20;95909.03;4377746;32;20244;-62
2023/09/14 07:37:13;;;;;;;7.57;7.07;;;;;;;18.76;93.70;95907.78;4371193;32;20228;-62
2023/09/14 07:39:39;;;;;;;8.40;7.70;;;;;;;18.77;93.13;95912.03;4349485;32;20317;-64
2023/09/14 07:42:06;;;;;;;7.03;6.43;;;;;;;18.77;93.93;95909.34;4353576;32;20184;-63
2023/09/14 07:44:32;;;;;;;8.47;7.67;;;;;;;18.92;94.55;95911.41;4379726;32;20195;-63
2023/09/14 07:46:58;;;;;;;7.53;6.83;;;;;;;18.98;95.56;95907.41;4371087;32;20196;-62
2023/09/14 07:49:26;;;;;;;8.37;7.80;;;;;;;19.01;94.71;95914.81;4362014;32;20281;-63
2023/09/14 07:51:53;;;;;;;5.93;5.60;;;;;;;19.06;94.16;95917.31;4368225;32;20196;-64
2023/09/14 07:54:20;;;;;;;6.87;6.47;;;;;;;19.04;93.58;95919.53;4341022;32;20257;-64
2023/09/14 07:56:47;;;;;;;6.40;6.03;;;;;;;19.11;93.79;95919.78;4376891;32;20200;-62
2023/09/14 07:59:12;;;;;;;8.67;8.13;;;;;;;19.33;93.55;95920.50;4364903;32;20197;-62
2023/09/14 08:01:38;;;;;;;6.57;6.20;;;;;;;19.22;92.65;95918.22;4346732;32;20255;-63
2023/09/14 08:04:04;;;;;;;7.13;6.53;;;;;;;19.37;93.34;95916.00;4355592;32;20204;-63
2023/09/14 08:06:30;;;;;;;4.90;4.70;;;;;;;19.44;93.75;95922.41;4350841;32;20211;-64
2023/09/14 08:08:56;;;;;;;6.93;6.50;;;;;;;19.35;91.91;95919.03;4359375;32;20197;-63
2023/09/14 08:11:24;;;;;;;6.33;5.83;;;;;;;19.55;92.05;95928.16;4378242;32;20284;-62
2023/09/14 08:13:49;;;;;;;7.90;7.40;;;;;;;19.40;91.36;95926.09;4350152;32;20204;-62
2023/09/14 08:16:15;;;;;;;5.93;5.43;;;;;;;19.60;91.77;95936.03;4363256;32;20201;-62
2023/09/14 08:18:45;;;;;;;7.43;6.93;;;;;;;19.75;90.92;95932.66;4375111;32;20188;-62
2023/09/14 08:21:10;;;;;;;4.33;4.13;;;;;;;19.87;91.14;95929.97;4366355;32;20235;-63
2023/09/14 08:23:40;;;;;;;7.73;7.23;;;;;;;19.94;90.97;95928.63;4356371;32;20219;-63
2023/09/14 08:26:08;;;;;;;6.90;6.47;;;;;;;20.00;89.92;95924.56;4380635;32;20224;-62
2023/09/14 08:28:35;;;;;;;11.20;8.40;;;;;;;19.88;90.61;95930.75;4357057;32;20185;-63
2023/09/14 08:31:00;;;;;;;7.50;6.83;;;;;;;20.02;89.77;95928.50;4375385;32;20207;-64
2023/09/14 08:33:28;;;;;;;6.97;6.37;;;;;;;20.09;88.46;95936.03;4381367;32;20197;-62
2023/09/14 08:35:55;;;;;;;6.33;5.83;;;;;;;19.96;89.47;95937.13;4319363;32;20217;-63
2023/09/14 08:38:25;;;;;;;7.37;6.83;;;;;;;20.08;89.91;95937.16;4343969;32;20299;-63
2023/09/14 08:40:54;;;;;;;5.97;5.60;;;;;;;20.02;89.91;95933.88;4364221;32;20275;-63
2023/09/14 08:43:25;;;;;;;6.73;6.33;;;;;;;20.04;87.69;95934.34;4344893;32;20287;-62
2023/09/14 08:45:53;;;;;;;5.97;5.67;;;;;;;19.89;87.34;95941.19;4367122;32;20294;-63
2023/09/14 08:48:26;;;;;;;8.97;7.40;;;;;;;19.68;88.33;95943.22;4351937;32;20200;-62
2023/09/14 08:50:55;;;;;;;6.60;6.23;;;;;;;19.62;88.50;95939.16;4330742;32;20361;-63
2023/09/14 08:53:23;;;;;;;4.85;4.57;;;;;;;19.64;89.54;95934.22;4329171;32;20153;-63
2023/09/14 08:55:51;;;;;;;5.83;5.43;;;;;;;19.72;89.53;95929.88;4363075;32;20258;-63
2023/09/14 08:58:29;;;;;;;6.70;6.10;;;;;;;19.85;90.53;95926.03;4378981;32;20219;-63
2023/09/14 09:00:56;;;;;;;8.10;7.50;;;;;;;19.79;90.96;95928.16;4366020;32;20262;-63
2023/09/14 09:03:23;;;;;;;5.07;4.67;;;;;;;19.79;88.82;95924.69;4369092;32;20256;-63
2023/09/14 09:05:50;;;;;;;6.30;5.80;;;;;;;19.82;88.95;95922.13;4374084;32;20208;-63
2023/09/14 09:08:17;;;;;;;6.57;6.20;;;;;;;19.88;89.50;95920.78;4373040;32;20245;-62
2023/09/14 09:10:43;;;;;;;6.90;6.47;;;;;;;20.02;89.63;95922.31;4342394;32;20188;-64
2023/09/14 09:13:08;;;;;;;6.43;6.03;;;;;;;19.86;88.69;95923.03;4311344;32;20193;-63
2023/09/14 09:15:38;;;;;;;6.90;6.30;;;;;;;19.89;89.28;95927.72;4385834;32;20248;-63
2023/09/14 09:18:12;;;;;;;6.77;6.33;;;;;;;19.96;88.74;95915.59;4371057;32;20199;-62
2023/09/14 09:20:40;;;;;;;6.13;5.73;;;;;;;19.90;87.46;95923.13;4376253;32;20246;-62
2023/09/14 09:23:09;;;;;;;5.47;5.17;;;;;;;20.05;87.90;95927.03;4368175;32;20176;-62
2023/09/14 09:25:45;;;;;;;5.50;5.17;;;;;;;20.13;87.50;95931.53;4364807;32;20248;-63
2023/09/14 09:28:12;;;;;;;5.50;5.03;;;;;;;20.25;86.84;95926.09;4347830;32;20255;-63
2023/09/14 09:30:39;;;;;;;5.93;5.53;;;;;;;20.32;86.97;95929.03;4349440;32;20192;-64
2023/09/14 09:33:08;;;;;;;7.10;6.40;;;;;;;20.36;86.87;95931.84;4367701;32;20200;-62
2023/09/14 09:35:34;;;;;;;5.30;4.80;;;;;;;20.21;86.41;95931.37;4386372;32;20201;-62
2023/09/14 09:38:14;;;;;;;4.87;4.57;;;;;;;20.21;85.11;95936.00;4348932;32;20189;-64
2023/09/14 09:40:43;;;;;;;6.47;6.03;;;;;;;20.16;86.52;95925.47;4370321;32;20225;-63
2023/09/14 09:43:09;;;;;;;6.67;6.27;;;;;;;20.33;86.49;95927.91;4319122;32;20188;-62
2023/09/14 09:45:42;;;;;;;6.87;6.37;;;;;;;20.28;86.06;95924.66;4356942;32;20192;-62
2023/09/14 09:48:11;;;;;;;6.17;5.67;;;;;;;20.28;86.73;95928.12;4372038;32;20208;-63
2023/09/14 09:50:38;;;;;;;8.73;6.67;;;;;;;20.25;87.25;95918.03;4344535;32;20205;-64
2023/09/14 09:53:29;;;;;;;6.53;6.17;;;;;;;20.31;86.61;95922.06;4373651;32;20192;-63
2023/09/14 09:55:55;;;;;;;5.50;5.30;;;;;;;20.21;86.75;95923.31;4382912;32;20215;-63
2023/09/14 09:58:34;;;;;;;7.70;7.00;;;;;;;20.20;87.39;95935.22;4383194;32;20290;-62
2023/09/14 10:01:00;;;;;;;7.63;6.77;;;;;;;20.08;86.73;95929.06;4330421;32;20192;-64
2023/09/14 10:03:30;;;;;;;6.47;5.97;;;;;;;19.97;87.54;95931.41;4382001;32;20215;-62
2023/09/14 10:05:57;;;;;;;9.63;7.13;;;;;;;19.98;87.42;95935.69;4350896;32;20257;-63
2023/09/14 10:08:27;;;;;;;6.87;6.47;;;;;;;19.84;88.05;95930.66;4385886;32;20207;-63
2023/09/14 10:10:53;;;;;;;7.20;6.60;;;;;;;19.84;88.45;95925.25;4363166;32;20227;-63
2023/09/14 10:13:24;;;;;;;9.07;8.13;;;;;;;19.81;89.12;95925.94;4382873;32;20255;-64
2023/09/14 10:15:56;;;;;;;11.57;10.57;;;;;;;19.74;88.15;95920.34;4370746;32;20204;-63
2023/09/14 10:18:24;;;;;;;9.30;7.47;;;;;;;19.69;88.82;95917.06;4352037;32;20199;-63
2023/09/14 10:20:52;;;;;;;8.73;8.03;;;;;;;19.77;89.09;95929.63;4370041;32;20180;-63
2023/09/14 10:23:19;;;;;;;7.13;6.53;;;;;;;19.77;87.96;95935.00;4394989;32;20206;-63
2023/09/14 10:25:50;;;;;;;11.60;10.10;;;;;;;19.69;88.23;95928.63;4393463;32;20213;-62
2023/09/14 10:28:17;;;;;;;7.93;7.07;;;;;;;19.70;88.57;95932.91;4392140;32;20200;-62
2023/09/14 10:30:46;;;;;;;8.37;7.67;;;;;;;19.77;89.56;95930.41;4391204;32;20250;-63
2023/09/14 10:33:13;;;;;;;8.23;7.67;;;;;;;19.83;88.47;95923.69;4393731;32;20245;-63
2023/09/14 10:35:40;;;;;;;6.70;6.30;;;;;;;19.86;88.13;95923.03;4391832;32;20210;-63
2023/09/14 10:38:06;;;;;;;7.73;7.10;;;;;;;19.93;87.83;95918.97;4383559;32;20206;-63
2023/09/14 10:40:34;;;;;;;7.20;6.53;;;;;;;19.94;87.65;95923.25;4395223;32;20215;-63
2023/09/14 10:42:59;;;;;;;5.50;5.20;;;;;;;19.90;87.91;95923.13;4384857;32;20206;-63
2023/09/14 10:45:26;;;;;;;5.60;5.27;;;;;;;19.84;88.23;95916.41;4391571;32;20193;-63
2023/09/14 10:47:53;;;;;;;6.87;5.83;;;;;;;19.82;87.51;95921.31;4392126;32;20197;-64
2023/09/14 10:50:21;;;;;;;6.67;6.13;;;;;;;19.78;87.54;95925.81;4391561;32;20188;-64
2023/09/14 10:52:47;;;;;;;5.83;5.37;;;;;;;19.73;87.44;95926.84;4378065;32;20280;-64
2023/09/14 10:55:12;;;;;;;6.57;6.17;;;;;;;19.65;87.61;95921.56;4384350;32;20200;-64
2023/09/14 10:57:43;;;;;;;5.80;5.50;;;;;;;19.67;86.92;95922.78;4395987;32;20279;-64
2023/09/14 11:00:42;;;;;;;8.73;7.80;;;;;;;19.63;87.09;95919.19;4393290;32;20232;-64
2023/09/14 11:03:08;;;;;;;5.60;5.17;;;;;;;19.60;86.63;95919.88;4390831;32;20199;-64
2023/09/14 11:05:49;;;;;;;4.73;4.33;;;;;;;19.55;86.44;95917.38;4395292;32;20188;-64
2023/09/14 11:08:15;;;;;;;6.03;5.30;;;;;;;19.53;86.40;95908.87;4398712;32;20215;-64
2023/09/14 11:10:58;;;;;;;6.30;5.83;;;;;;;19.54;86.25;95913.91;4387828;32;20259;-64
2023/09/14 11:13:30;;;;;;;5.67;5.27;;;;;;;19.75;85.01;95910.31;4390533;32;20192;-64
2023/09/14 11:16:06;;;;;;;5.43;5.10;;;;;;;19.73;85.66;95902.63;4397328;32;20195;-64
2023/09/14 11:18:37;;;;;;;5.60;4.80;;;;;;;19.73;86.49;95912.59;4391456;32;20230;-64
2023/09/14 11:21:02;;;;;;;7.23;6.73;;;;;;;19.71;86.73;95904.84;4398513;32;20257;-64
2023/09/14 11:23:35;;;;;;;6.73;6.23;;;;;;;19.73;85.91;95901.81;4395024;32;20238;-64
2023/09/14 11:26:02;;;;;;;3.73;3.53;;;;;;;19.74;84.81;95904.19;4373202;32;20200;-64
2023/09/14 11:28:29;;;;;;;5.63;5.17;;;;;;;19.74;83.93;95898.00;4382391;32;20219;-64
2023/09/14 11:30:56;;;;;;;4.67;4.27;;;;;;;19.77;84.46;95895.41;4404014;32;20210;-64
2023/09/14 11:33:23;;;;;;;5.67;4.83;;;;;;;19.78;82.73;95896.19;4396252;32;20256;-64